Arroyo, PR (00714)

4:11 PM AST on October 01, 2014 (GMT -0400)
Casco Urbano Guayama | Change Station
CLOSE
Current Station
Personal Weather Station
Location: Guayama, GUAYAMA
Elevation: 233 ft
Nearby Weather Stations

Elev 233 ft 17.98 °N, 66.11 °W | Updated 28 minutes ago

Scattered Clouds
Scattered Clouds
87.0 °F
Feels Like 98 °F
N
9.0
Wind Variable Wind from ESE
Gusts 17.0 mph

Today
High -- | Low -- °F
--% Chance of Precip.
Yesterday
High -- | Low -- °F
Precip. -- in
6:14 AM 6:12 PM
Waxing Crescent, 50% visible
Pressure 29.93 in
Visibility 9.0 miles
Clouds Few 4600 ft
Scattered Clouds 5500 ft
Scattered Clouds 10000 ft
Heat Index 98 °F
Dew Point 76 °F
Humidity 71%
Rainfall -999.00 in
Snow Depth Not available.
UV 3 out of 12
Pollen Not available.
Air Quality Not available.
Flu Activity Not available.
METAR TJSJ 301956Z 08010G14KT 9SM FEW046 SCT055 SCT100 32/26 A2993 RMK AO2 SLP134 HZ ALQDS T03220256

More Conditions Fewer Conditions

Pressure 29.93 in
Visibility 9.0 miles
Clouds Few 4600 ft
Scattered Clouds 5500 ft
Scattered Clouds 10000 ft
Heat Index 98 °F
Dew Point 76 °F
Humidity 71%
Rainfall -999.00 in
Snow Depth Not available.
UV 3 out of 12
Pollen Not available.
Air Quality Not available.
Flu Activity Not available.
METAR TJSJ 301956Z 08010G14KT 9SM FEW046 SCT055 SCT100 32/26 A2993 RMK AO2 SLP134 HZ ALQDS T03220256

More Conditions Fewer Conditions

10-Day Weather Forecast

Almanac

Astronomy

Oct. 01, 2014 Rise Set
Actual Time 6:14 AM AST 6:12 PM AST
Civil Twilight 5:52 AM AST 6:34 PM AST
Nautical Twilight 5:27 AM AST 6:59 PM AST
Astronomical Twilight 5:02 AM AST 7:25 PM AST
Moon 12:37 PM AST No Moon Set
Length of Visible Light 12h 41m
Length of Day
11h 58m
Tomorrow will be 1m 0s shorter.
Waxing Crescent, 50% of the Moon is Illuminated
Today
Waxing Crescent
Oct 8
Full
Oct 15
Last Quarter
Oct 23
New
Oct 30
First Quarter

Community

WunderPhotos

Upload Photos

1,758,022 photos uploaded!

WunderBlogs® & News

By Dr. Jeff Masters
Director of Meteorology, Weather Underground
By Kari Strenfel
Meteorologist, Weather Underground
By Christopher C. Burt
Weather Historian, Weather Underground
October 1, 2014
October 1, 2014
October 1, 2014

Nearby

Snow Depth

Station Depth Elevation
No new snow has been reported.

Earthquake Activity

City Distance Mag. Time & Date
No recent earthquake activity has been reported nearby.
Minimum magnitude displayed is 2.5.

Coastal Water Temperatures

Place Temperature
Magueyes Islands, PR 86.0 °F
Yabucoa Harbor, PR 88.0 °F

Nearby Weather Stations